aviador You're here:

YTEF Decoded Metar

TELFER AIRPORT in _UNIDENTIFIED
Report Time2017-08-17 13:00:00
UTC Time2017-08-17 13:28:31
Flight Rules vfr VFR
Wind130° at 07 kt
W.Decomp.*RWY 12: 6.9 kt HW 1.0 kt RCW
W.Rank130° ranks 2
Current wind is below 130° avg. (10.7)
Visibility9999 m
Phenomena:N/A
Clouds:N/A
Expected CloudBase > 6,400 ft AGL from Temp-Dew spread
CeilingNone
Temp19°C (ISA +6)
Dew Point03°C (35% RH)
AAT15.0°C
QNH1016 hPa
Density Alt1,670 ft
Elevation971 ft
Report Wrong Elevation
Raw Report
YTEF 171300Z AUTO 13007KT 9999 // NCD 19/03 Q1016=

Extra information for YTEF:More info

Metar Taf Metar & Taf Last 4 Metars F.Rules Stats Wind Profile Meteogram Temp Stats Airport Information Weather charts Add Link Nearby VenuesMetar ALERT Operation Metar Decoded Social comments